sensor_id;sensor_type;location;lat;lon;timestamp;P1;durP1;ratioP1;P2;durP2;ratioP2
19653;SDS011;9975;48.046;7.804;2023-03-04T01:56:52;28.67;;;14.70;;
19653;SDS011;9975;48.046;7.804;2023-03-04T01:59:20;42.03;;;17.50;;
19653;SDS011;9975;48.046;7.804;2023-03-04T02:01:52;38.00;;;18.17;;
19653;SDS011;9975;48.046;7.804;2023-03-04T02:04:23;43.17;;;19.20;;
19653;SDS011;9975;48.046;7.804;2023-03-04T02:06:50;56.05;;;19.75;;
19653;SDS011;9975;48.046;7.804;2023-03-04T02:09:17;45.80;;;18.13;;
19653;SDS011;9975;48.046;7.804;2023-03-04T02:11:43;42.38;;;17.95;;
19653;SDS011;9975;48.046;7.804;2023-03-04T02:14:10;46.78;;;21.10;;
19653;SDS011;9975;48.046;7.804;2023-03-04T02:16:37;46.33;;;19.30;;
19653;SDS011;9975;48.046;7.804;2023-03-04T02:19:04;42.80;;;18.50;;
19653;SDS011;9975;48.046;7.804;2023-03-04T02:21:36;46.00;;;19.73;;
19653;SDS011;9975;48.046;7.804;2023-03-04T02:26:32;37.33;;;16.95;;
19653;SDS011;9975;48.046;7.804;2023-03-04T02:28:59;56.10;;;19.73;;
19653;SDS011;9975;48.046;7.804;2023-03-04T02:31:27;37.60;;;18.08;;
19653;SDS011;9975;48.046;7.804;2023-03-04T02:34:01;42.78;;;18.77;;
19653;SDS011;9975;48.046;7.804;2023-03-04T02:36:46;33.83;;;17.90;;
19653;SDS011;9975;48.046;7.804;2023-03-04T02:41:44;50.20;;;17.85;;
19653;SDS011;9975;48.046;7.804;2023-03-04T02:44:15;44.72;;;18.83;;
19653;SDS011;9975;48.046;7.804;2023-03-04T02:46:42;35.13;;;16.98;;
19653;SDS011;9975;48.046;7.804;2023-03-04T02:49:08;44.35;;;18.20;;
19653;SDS011;9975;48.046;7.804;2023-03-04T02:51:34;43.20;;;18.77;;
19653;SDS011;9975;48.046;7.804;2023-03-04T02:53:59;44.07;;;16.63;;
19653;SDS011;9975;48.046;7.804;2023-03-04T02:56:25;38.67;;;17.07;;
19653;SDS011;9975;48.046;7.804;2023-03-04T02:58:51;35.23;;;16.80;;
19653;SDS011;9975;48.046;7.804;2023-03-04T03:01:16;31.03;;;15.77;;
19653;SDS011;9975;48.046;7.804;2023-03-04T03:03:42;36.77;;;17.77;;
19653;SDS011;9975;48.046;7.804;2023-03-04T03:06:07;45.77;;;17.50;;
19653;SDS011;9975;48.046;7.804;2023-03-04T03:08:33;43.03;;;17.97;;
19653;SDS011;9975;48.046;7.804;2023-03-04T03:10:59;43.53;;;17.67;;
19653;SDS011;9975;48.046;7.804;2023-03-04T03:13:24;50.07;;;19.00;;
19653;SDS011;9975;48.046;7.804;2023-03-04T03:15:50;40.83;;;16.10;;
19653;SDS011;9975;48.046;7.804;2023-03-04T03:18:15;41.60;;;19.50;;
19653;SDS011;9975;48.046;7.804;2023-03-04T03:20:41;37.30;;;17.17;;
19653;SDS011;9975;48.046;7.804;2023-03-04T03:23:07;35.90;;;17.20;;
19653;SDS011;9975;48.046;7.804;2023-03-04T03:25:33;41.80;;;19.45;;
19653;SDS011;9975;48.046;7.804;2023-03-04T03:27:58;52.73;;;19.90;;
19653;SDS011;9975;48.046;7.804;2023-03-04T03:30:24;39.13;;;18.20;;
19653;SDS011;9975;48.046;7.804;2023-03-04T03:32:50;39.60;;;19.30;;
19653;SDS011;9975;48.046;7.804;2023-03-04T03:35:16;29.50;;;15.37;;
19653;SDS011;9975;48.046;7.804;2023-03-04T03:37:41;37.80;;;17.50;;
19653;SDS011;9975;48.046;7.804;2023-03-04T03:40:07;40.73;;;17.07;;
19653;SDS011;9975;48.046;7.804;2023-03-04T03:42:33;40.60;;;20.05;;
19653;SDS011;9975;48.046;7.804;2023-03-04T03:44:59;42.17;;;18.90;;
19653;SDS011;9975;48.046;7.804;2023-03-04T03:47:24;33.27;;;16.50;;
19653;SDS011;9975;48.046;7.804;2023-03-04T03:49:51;43.78;;;18.13;;
19653;SDS011;9975;48.046;7.804;2023-03-04T03:52:17;35.77;;;18.20;;
19653;SDS011;9975;48.046;7.804;2023-03-04T03:54:42;42.30;;;19.00;;
19653;SDS011;9975;48.046;7.804;2023-03-04T03:57:08;41.30;;;19.60;;
19653;SDS011;9975;48.046;7.804;2023-03-04T03:59:34;37.70;;;17.00;;
19653;SDS011;9975;48.046;7.804;2023-03-04T04:01:59;39.33;;;17.40;;
19653;SDS011;9975;48.046;7.804;2023-03-04T04:04:25;42.20;;;18.77;;
19653;SDS011;9975;48.046;7.804;2023-03-04T04:06:51;40.30;;;17.93;;
19653;SDS011;9975;48.046;7.804;2023-03-04T04:09:16;50.10;;;19.67;;
19653;SDS011;9975;48.046;7.804;2023-03-04T04:11:42;45.93;;;18.50;;
19653;SDS011;9975;48.046;7.804;2023-03-04T04:14:08;42.97;;;17.27;;
19653;SDS011;9975;48.046;7.804;2023-03-04T04:16:36;40.17;;;18.40;;
19653;SDS011;9975;48.046;7.804;2023-03-04T04:19:02;40.00;;;15.80;;
19653;SDS011;9975;48.046;7.804;2023-03-04T04:21:28;35.13;;;17.00;;
19653;SDS011;9975;48.046;7.804;2023-03-04T04:23:53;41.33;;;18.60;;
19653;SDS011;9975;48.046;7.804;2023-03-04T04:26:19;39.57;;;16.63;;
19653;SDS011;9975;48.046;7.804;2023-03-04T04:28:44;45.30;;;20.77;;
19653;SDS011;9975;48.046;7.804;2023-03-04T04:31:10;43.57;;;17.80;;
19653;SDS011;9975;48.046;7.804;2023-03-04T04:33:36;44.90;;;16.57;;
19653;SDS011;9975;48.046;7.804;2023-03-04T04:36:01;37.80;;;16.53;;
19653;SDS011;9975;48.046;7.804;2023-03-04T04:38:29;42.83;;;18.15;;
19653;SDS011;9975;48.046;7.804;2023-03-04T04:40:58;39.60;;;17.00;;
19653;SDS011;9975;48.046;7.804;2023-03-04T04:43:24;38.65;;;15.88;;
19653;SDS011;9975;48.046;7.804;2023-03-04T04:45:50;42.93;;;18.13;;
19653;SDS011;9975;48.046;7.804;2023-03-04T04:48:16;39.17;;;17.60;;
19653;SDS011;9975;48.046;7.804;2023-03-04T04:50:41;41.23;;;18.23;;
19653;SDS011;9975;48.046;7.804;2023-03-04T04:53:10;36.45;;;15.55;;
19653;SDS011;9975;48.046;7.804;2023-03-04T04:55:37;35.92;;;16.85;;
19653;SDS011;9975;48.046;7.804;2023-03-04T04:58:04;42.20;;;16.87;;
19653;SDS011;9975;48.046;7.804;2023-03-04T05:00:30;41.45;;;17.50;;
19653;SDS011;9975;48.046;7.804;2023-03-04T05:02:57;39.07;;;17.53;;
19653;SDS011;9975;48.046;7.804;2023-03-04T05:05:23;38.80;;;16.38;;
19653;SDS011;9975;48.046;7.804;2023-03-04T05:07:48;34.90;;;16.90;;
19653;SDS011;9975;48.046;7.804;2023-03-04T05:10:14;34.37;;;17.00;;
19653;SDS011;9975;48.046;7.804;2023-03-04T05:12:40;34.30;;;14.93;;
19653;SDS011;9975;48.046;7.804;2023-03-04T05:15:07;39.42;;;16.40;;
19653;SDS011;9975;48.046;7.804;2023-03-04T05:17:33;34.67;;;16.50;;
19653;SDS011;9975;48.046;7.804;2023-03-04T05:19:59;37.70;;;17.50;;
19653;SDS011;9975;48.046;7.804;2023-03-04T05:22:24;32.10;;;15.60;;
19653;SDS011;9975;48.046;7.804;2023-03-04T05:24:50;33.83;;;15.77;;
19653;SDS011;9975;48.046;7.804;2023-03-04T05:27:16;36.03;;;17.20;;
19653;SDS011;9975;48.046;7.804;2023-03-04T05:29:41;35.07;;;17.10;;
19653;SDS011;9975;48.046;7.804;2023-03-04T05:32:08;39.58;;;18.38;;
19653;SDS011;9975;48.046;7.804;2023-03-04T05:34:34;36.07;;;15.33;;
19653;SDS011;9975;48.046;7.804;2023-03-04T05:36:59;30.97;;;15.10;;
19653;SDS011;9975;48.046;7.804;2023-03-04T05:39:25;36.40;;;16.47;;
19653;SDS011;9975;48.046;7.804;2023-03-04T05:41:51;37.20;;;15.90;;
19653;SDS011;9975;48.046;7.804;2023-03-04T05:44:16;36.67;;;15.60;;
19653;SDS011;9975;48.046;7.804;2023-03-04T05:46:42;36.30;;;17.53;;
19653;SDS011;9975;48.046;7.804;2023-03-04T05:49:07;36.63;;;16.67;;
19653;SDS011;9975;48.046;7.804;2023-03-04T05:51:33;41.10;;;16.90;;
19653;SDS011;9975;48.046;7.804;2023-03-04T05:53:58;33.57;;;15.73;;
19653;SDS011;9975;48.046;7.804;2023-03-04T05:56:27;38.05;;;15.95;;
19653;SDS011;9975;48.046;7.804;2023-03-04T05:58:55;34.67;;;15.85;;
19653;SDS011;9975;48.046;7.804;2023-03-04T06:01:22;38.53;;;15.48;;
19653;SDS011;9975;48.046;7.804;2023-03-04T06:03:48;32.77;;;15.03;;
19653;SDS011;9975;48.046;7.804;2023-03-04T06:06:13;42.53;;;15.83;;
19653;SDS011;9975;48.046;7.804;2023-03-04T06:08:39;37.63;;;17.10;;
19653;SDS011;9975;48.046;7.804;2023-03-04T06:11:05;40.60;;;16.20;;
19653;SDS011;9975;48.046;7.804;2023-03-04T06:13:31;35.83;;;16.33;;
19653;SDS011;9975;48.046;7.804;2023-03-04T06:15:57;31.23;;;15.18;;
19653;SDS011;9975;48.046;7.804;2023-03-04T06:18:24;33.53;;;15.95;;
19653;SDS011;9975;48.046;7.804;2023-03-04T06:20:54;41.33;;;17.55;;
19653;SDS011;9975;48.046;7.804;2023-03-04T06:23:21;40.35;;;17.75;;
19653;SDS011;9975;48.046;7.804;2023-03-04T06:25:50;39.00;;;17.00;;
19653;SDS011;9975;48.046;7.804;2023-03-04T06:28:17;37.65;;;14.63;;
19653;SDS011;9975;48.046;7.804;2023-03-04T06:30:43;41.83;;;17.20;;
19653;SDS011;9975;48.046;7.804;2023-03-04T06:33:08;38.10;;;16.67;;
19653;SDS011;9975;48.046;7.804;2023-03-04T06:35:34;43.63;;;17.90;;
19653;SDS011;9975;48.046;7.804;2023-03-04T06:37:59;36.97;;;15.87;;
19653;SDS011;9975;48.046;7.804;2023-03-04T06:40:25;48.10;;;16.97;;
19653;SDS011;9975;48.046;7.804;2023-03-04T06:42:51;41.10;;;18.47;;
19653;SDS011;9975;48.046;7.804;2023-03-04T06:45:16;43.60;;;18.13;;
19653;SDS011;9975;48.046;7.804;2023-03-04T06:47:42;35.20;;;17.53;;
19653;SDS011;9975;48.046;7.804;2023-03-04T06:50:09;40.90;;;18.05;;
19653;SDS011;9975;48.046;7.804;2023-03-04T06:52:36;49.80;;;16.83;;
19653;SDS011;9975;48.046;7.804;2023-03-04T06:55:02;34.08;;;17.05;;
19653;SDS011;9975;48.046;7.804;2023-03-04T06:57:28;37.55;;;18.15;;
19653;SDS011;9975;48.046;7.804;2023-03-04T06:59:54;35.87;;;16.90;;
19653;SDS011;9975;48.046;7.804;2023-03-04T07:02:19;42.63;;;16.80;;
19653;SDS011;9975;48.046;7.804;2023-03-04T07:04:45;37.93;;;18.80;;
19653;SDS011;9975;48.046;7.804;2023-03-04T07:07:11;36.27;;;17.00;;
19653;SDS011;9975;48.046;7.804;2023-03-04T07:09:36;41.27;;;18.10;;
19653;SDS011;9975;48.046;7.804;2023-03-04T07:12:02;44.40;;;18.93;;
19653;SDS011;9975;48.046;7.804;2023-03-04T07:14:28;37.87;;;17.53;;
19653;SDS011;9975;48.046;7.804;2023-03-04T07:16:53;42.90;;;17.97;;
19653;SDS011;9975;48.046;7.804;2023-03-04T07:19:19;41.47;;;17.83;;
19653;SDS011;9975;48.046;7.804;2023-03-04T07:21:45;42.03;;;18.85;;
19653;SDS011;9975;48.046;7.804;2023-03-04T07:24:11;47.93;;;18.47;;
19653;SDS011;9975;48.046;7.804;2023-03-04T07:26:37;43.80;;;17.00;;
19653;SDS011;9975;48.046;7.804;2023-03-04T07:29:03;37.33;;;19.40;;
19653;SDS011;9975;48.046;7.804;2023-03-04T07:31:30;51.90;;;19.92;;
19653;SDS011;9975;48.046;7.804;2023-03-04T07:33:58;49.25;;;19.00;;
19653;SDS011;9975;48.046;7.804;2023-03-04T07:36:25;38.83;;;19.08;;
19653;SDS011;9975;48.046;7.804;2023-03-04T07:38:51;38.20;;;17.70;;
19653;SDS011;9975;48.046;7.804;2023-03-04T07:41:18;41.72;;;19.40;;
19653;SDS011;9975;48.046;7.804;2023-03-04T07:43:45;36.67;;;17.88;;
19653;SDS011;9975;48.046;7.804;2023-03-04T07:46:11;46.60;;;20.97;;
19653;SDS011;9975;48.046;7.804;2023-03-04T07:48:37;33.90;;;18.17;;
19653;SDS011;9975;48.046;7.804;2023-03-04T07:51:03;42.37;;;19.70;;
19653;SDS011;9975;48.046;7.804;2023-03-04T07:53:35;50.70;;;18.95;;
19653;SDS011;9975;48.046;7.804;2023-03-04T07:56:02;48.50;;;19.65;;
19653;SDS011;9975;48.046;7.804;2023-03-04T07:58:29;45.78;;;19.40;;
19653;SDS011;9975;48.046;7.804;2023-03-04T08:00:55;50.07;;;19.27;;
19653;SDS011;9975;48.046;7.804;2023-03-04T08:03:20;45.77;;;18.30;;
19653;SDS011;9975;48.046;7.804;2023-03-04T08:05:46;39.63;;;16.50;;
19653;SDS011;9975;48.046;7.804;2023-03-04T08:08:12;49.33;;;18.20;;
19653;SDS011;9975;48.046;7.804;2023-03-04T08:10:37;51.97;;;20.97;;
19653;SDS011;9975;48.046;7.804;2023-03-04T08:13:04;47.67;;;17.90;;
19653;SDS011;9975;48.046;7.804;2023-03-04T08:15:31;51.20;;;20.50;;
19653;SDS011;9975;48.046;7.804;2023-03-04T08:17:59;48.42;;;19.30;;
19653;SDS011;9975;48.046;7.804;2023-03-04T08:20:26;47.53;;;20.83;;
19653;SDS011;9975;48.046;7.804;2023-03-04T08:22:52;54.25;;;20.25;;
19653;SDS011;9975;48.046;7.804;2023-03-04T08:25:19;48.45;;;19.27;;
19653;SDS011;9975;48.046;7.804;2023-03-04T08:27:44;49.37;;;20.20;;
19653;SDS011;9975;48.046;7.804;2023-03-04T08:30:10;51.43;;;19.63;;
19653;SDS011;9975;48.046;7.804;2023-03-04T08:32:36;58.10;;;21.77;;
19653;SDS011;9975;48.046;7.804;2023-03-04T08:35:01;64.27;;;24.00;;
19653;SDS011;9975;48.046;7.804;2023-03-04T08:37:30;51.37;;;22.03;;
19653;SDS011;9975;48.046;7.804;2023-03-04T08:39:55;59.90;;;22.80;;
19653;SDS011;9975;48.046;7.804;2023-03-04T08:42:21;54.57;;;20.67;;
19653;SDS011;9975;48.046;7.804;2023-03-04T08:44:49;68.43;;;20.73;;
19653;SDS011;9975;48.046;7.804;2023-03-04T08:47:15;53.08;;;19.65;;
19653;SDS011;9975;48.046;7.804;2023-03-04T08:49:40;50.73;;;20.93;;
19653;SDS011;9975;48.046;7.804;2023-03-04T08:52:07;56.80;;;21.17;;
19653;SDS011;9975;48.046;7.804;2023-03-04T08:54:32;50.50;;;19.85;;
19653;SDS011;9975;48.046;7.804;2023-03-04T08:56:58;50.47;;;18.40;;
19653;SDS011;9975;48.046;7.804;2023-03-04T08:59:24;64.07;;;22.47;;
19653;SDS011;9975;48.046;7.804;2023-03-04T09:01:49;53.83;;;21.73;;
19653;SDS011;9975;48.046;7.804;2023-03-04T09:04:15;53.93;;;20.23;;
19653;SDS011;9975;48.046;7.804;2023-03-04T09:06:40;51.00;;;20.17;;
19653;SDS011;9975;48.046;7.804;2023-03-04T09:09:06;59.20;;;21.07;;
19653;SDS011;9975;48.046;7.804;2023-03-04T09:11:32;56.73;;;20.90;;
19653;SDS011;9975;48.046;7.804;2023-03-04T09:13:57;52.03;;;20.23;;
19653;SDS011;9975;48.046;7.804;2023-03-04T09:16:23;62.77;;;23.80;;
19653;SDS011;9975;48.046;7.804;2023-03-04T09:18:48;47.30;;;20.20;;
19653;SDS011;9975;48.046;7.804;2023-03-04T09:21:14;44.47;;;17.90;;
19653;SDS011;9975;48.046;7.804;2023-03-04T09:23:40;51.20;;;19.10;;
19653;SDS011;9975;48.046;7.804;2023-03-04T09:26:13;41.90;;;18.97;;
19653;SDS011;9975;48.046;7.804;2023-03-04T09:28:52;47.05;;;19.75;;
19653;SDS011;9975;48.046;7.804;2023-03-04T09:31:20;52.13;;;20.83;;
19653;SDS011;9975;48.046;7.804;2023-03-04T09:33:46;55.50;;;19.10;;
19653;SDS011;9975;48.046;7.804;2023-03-04T09:36:21;56.67;;;20.30;;
19653;SDS011;9975;48.046;7.804;2023-03-04T09:38:47;56.50;;;21.87;;
19653;SDS011;9975;48.046;7.804;2023-03-04T09:41:17;60.10;;;20.27;;
19653;SDS011;9975;48.046;7.804;2023-03-04T09:43:52;58.67;;;21.63;;
19653;SDS011;9975;48.046;7.804;2023-03-04T09:46:33;52.92;;;20.58;;
19653;SDS011;9975;48.046;7.804;2023-03-04T09:49:03;62.85;;;18.55;;
19653;SDS011;9975;48.046;7.804;2023-03-04T09:56:48;48.65;;;19.70;;
19653;SDS011;9975;48.046;7.804;2023-03-04T10:01:57;50.40;;;22.73;;
19653;SDS011;9975;48.046;7.804;2023-03-04T10:04:39;50.65;;;20.77;;
19653;SDS011;9975;48.046;7.804;2023-03-04T10:07:12;64.47;;;22.83;;
19653;SDS011;9975;48.046;7.804;2023-03-04T10:09:46;58.38;;;21.20;;
19653;SDS011;9975;48.046;7.804;2023-03-04T10:12:19;52.72;;;19.15;;
19653;SDS011;9975;48.046;7.804;2023-03-04T10:14:49;73.65;;;22.60;;
19653;SDS011;9975;48.046;7.804;2023-03-04T10:17:25;59.22;;;22.58;;
19653;SDS011;9975;48.046;7.804;2023-03-04T10:19:58;53.05;;;20.20;;
19653;SDS011;9975;48.046;7.804;2023-03-04T10:22:46;50.10;;;21.42;;
19653;SDS011;9975;48.046;7.804;2023-03-04T10:27:54;71.75;;;22.90;;
19653;SDS011;9975;48.046;7.804;2023-03-04T10:30:40;63.95;;;22.90;;
19653;SDS011;9975;48.046;7.804;2023-03-04T10:33:26;54.85;;;19.77;;
19653;SDS011;9975;48.046;7.804;2023-03-04T10:38:39;44.20;;;19.33;;
19653;SDS011;9975;48.046;7.804;2023-03-04T10:41:13;60.13;;;23.20;;
19653;SDS011;9975;48.046;7.804;2023-03-04T10:43:40;51.00;;;22.40;;
19653;SDS011;9975;48.046;7.804;2023-03-04T10:49:32;63.05;;;24.75;;
19653;SDS011;9975;48.046;7.804;2023-03-04T11:03:22;56.03;;;21.85;;
19653;SDS011;9975;48.046;7.804;2023-03-04T11:07:54;53.60;;;20.63;;
19653;SDS011;9975;48.046;7.804;2023-03-04T11:10:43;53.97;;;22.05;;
19653;SDS011;9975;48.046;7.804;2023-03-04T11:18:43;64.55;;;24.08;;
19653;SDS011;9975;48.046;7.804;2023-03-04T11:21:17;49.38;;;23.52;;
19653;SDS011;9975;48.046;7.804;2023-03-04T11:26:18;58.40;;;23.10;;
19653;SDS011;9975;48.046;7.804;2023-03-04T11:31:38;52.50;;;21.80;;
19653;SDS011;9975;48.046;7.804;2023-03-04T11:37:02;51.88;;;22.67;;
19653;SDS011;9975;48.046;7.804;2023-03-04T11:39:45;58.42;;;22.50;;
19653;SDS011;9975;48.046;7.804;2023-03-04T11:45:16;53.92;;;20.95;;
19653;SDS011;9975;48.046;7.804;2023-03-04T11:47:54;48.97;;;21.67;;
19653;SDS011;9975;48.046;7.804;2023-03-04T12:01:54;44.07;;;22.37;;
19653;SDS011;9975;48.046;7.804;2023-03-04T12:38:02;48.93;;;23.53;;
19653;SDS011;9975;48.046;7.804;2023-03-04T12:40:48;48.73;;;23.33;;
19653;SDS011;9975;48.046;7.804;2023-03-04T12:43:29;51.60;;;23.87;;
19653;SDS011;9975;48.046;7.804;2023-03-04T12:46:06;51.20;;;23.33;;
19653;SDS011;9975;48.046;7.804;2023-03-04T12:48:43;47.53;;;23.57;;
19653;SDS011;9975;48.046;7.804;2023-03-04T12:51:22;44.30;;;23.03;;
19653;SDS011;9975;48.046;7.804;2023-03-04T12:54:02;47.43;;;24.30;;
19653;SDS011;9975;48.046;7.804;2023-03-04T12:56:38;39.33;;;21.20;;
19653;SDS011;9975;48.046;7.804;2023-03-04T13:04:59;40.00;;;21.30;;
19653;SDS011;9975;48.046;7.804;2023-03-04T13:07:42;40.33;;;21.40;;
19653;SDS011;9975;48.046;7.804;2023-03-04T13:10:30;36.60;;;20.33;;
19653;SDS011;9975;48.046;7.804;2023-03-04T13:12:57;44.00;;;21.60;;
19653;SDS011;9975;48.046;7.804;2023-03-04T13:17:56;33.47;;;20.03;;
19653;SDS011;9975;48.046;7.804;2023-03-04T13:22:55;43.27;;;21.00;;
19653;SDS011;9975;48.046;7.804;2023-03-04T13:25:36;35.50;;;21.07;;
19653;SDS011;9975;48.046;7.804;2023-03-04T13:35:47;31.03;;;16.27;;
19653;SDS011;9975;48.046;7.804;2023-03-04T13:38:21;32.97;;;18.53;;
19653;SDS011;9975;48.046;7.804;2023-03-04T13:43:48;29.70;;;17.17;;
19653;SDS011;9975;48.046;7.804;2023-03-04T13:51:22;38.43;;;19.60;;
19653;SDS011;9975;48.046;7.804;2023-03-04T13:56:24;35.70;;;18.00;;
19653;SDS011;9975;48.046;7.804;2023-03-04T13:59:03;28.63;;;16.20;;
19653;SDS011;9975;48.046;7.804;2023-03-04T14:04:27;36.83;;;18.90;;
19653;SDS011;9975;48.046;7.804;2023-03-04T14:06:56;29.10;;;16.90;;
19653;SDS011;9975;48.046;7.804;2023-03-04T14:09:31;30.70;;;17.73;;
19653;SDS011;9975;48.046;7.804;2023-03-04T14:11:59;29.77;;;16.57;;
19653;SDS011;9975;48.046;7.804;2023-03-04T14:14:45;35.40;;;19.97;;
19653;SDS011;9975;48.046;7.804;2023-03-04T14:17:24;35.03;;;18.53;;
19653;SDS011;9975;48.046;7.804;2023-03-04T14:19:58;35.13;;;17.00;;
19653;SDS011;9975;48.046;7.804;2023-03-04T14:22:32;32.73;;;17.57;;
19653;SDS011;9975;48.046;7.804;2023-03-04T14:28:01;39.43;;;18.33;;
19653;SDS011;9975;48.046;7.804;2023-03-04T14:30:37;37.90;;;18.60;;
19653;SDS011;9975;48.046;7.804;2023-03-04T14:33:10;31.77;;;16.67;;
19653;SDS011;9975;48.046;7.804;2023-03-04T14:35:44;32.87;;;17.67;;
19653;SDS011;9975;48.046;7.804;2023-03-04T14:38:21;33.53;;;17.10;;
19653;SDS011;9975;48.046;7.804;2023-03-04T14:40:52;36.87;;;19.40;;
19653;SDS011;9975;48.046;7.804;2023-03-04T14:43:26;32.37;;;17.60;;
19653;SDS011;9975;48.046;7.804;2023-03-04T14:45:54;35.83;;;16.70;;
19653;SDS011;9975;48.046;7.804;2023-03-04T14:48:31;33.40;;;17.30;;
19653;SDS011;9975;48.046;7.804;2023-03-04T14:50:58;31.50;;;17.10;;
19653;SDS011;9975;48.046;7.804;2023-03-04T14:53:26;31.23;;;17.50;;
19653;SDS011;9975;48.046;7.804;2023-03-04T14:58:53;37.77;;;17.20;;
19653;SDS011;9975;48.046;7.804;2023-03-04T15:01:22;32.80;;;18.00;;
19653;SDS011;9975;48.046;7.804;2023-03-04T15:04:18;40.73;;;20.67;;
19653;SDS011;9975;48.046;7.804;2023-03-04T15:06:51;37.03;;;19.70;;
19653;SDS011;9975;48.046;7.804;2023-03-04T15:09:19;38.97;;;18.80;;
19653;SDS011;9975;48.046;7.804;2023-03-04T15:12:11;34.40;;;16.67;;
19653;SDS011;9975;48.046;7.804;2023-03-04T15:14:43;36.70;;;18.57;;
19653;SDS011;9975;48.046;7.804;2023-03-04T15:22:55;34.97;;;19.00;;
19653;SDS011;9975;48.046;7.804;2023-03-04T15:25:23;37.57;;;20.03;;
19653;SDS011;9975;48.046;7.804;2023-03-04T15:27:49;35.80;;;19.27;;
19653;SDS011;9975;48.046;7.804;2023-03-04T15:30:17;40.67;;;21.77;;
19653;SDS011;9975;48.046;7.804;2023-03-04T15:32:52;36.80;;;17.10;;
19653;SDS011;9975;48.046;7.804;2023-03-04T15:35:18;42.40;;;19.40;;
19653;SDS011;9975;48.046;7.804;2023-03-04T15:38:02;37.93;;;19.40;;
19653;SDS011;9975;48.046;7.804;2023-03-04T15:40:31;35.13;;;17.97;;
19653;SDS011;9975;48.046;7.804;2023-03-04T15:43:01;40.83;;;20.27;;
19653;SDS011;9975;48.046;7.804;2023-03-04T15:45:28;38.23;;;18.47;;
19653;SDS011;9975;48.046;7.804;2023-03-04T15:48:04;34.60;;;19.13;;
19653;SDS011;9975;48.046;7.804;2023-03-04T15:50:37;32.60;;;17.30;;
19653;SDS011;9975;48.046;7.804;2023-03-04T15:53:07;42.60;;;18.73;;
19653;SDS011;9975;48.046;7.804;2023-03-04T15:55:37;39.63;;;20.00;;
19653;SDS011;9975;48.046;7.804;2023-03-04T15:58:03;62.37;;;28.90;;
19653;SDS011;9975;48.046;7.804;2023-03-04T16:00:29;48.77;;;21.70;;
19653;SDS011;9975;48.046;7.804;2023-03-04T16:02:56;50.03;;;19.20;;
19653;SDS011;9975;48.046;7.804;2023-03-04T16:05:22;40.23;;;19.77;;
19653;SDS011;9975;48.046;7.804;2023-03-04T16:07:48;35.53;;;19.23;;
19653;SDS011;9975;48.046;7.804;2023-03-04T16:10:24;43.47;;;19.97;;
19653;SDS011;9975;48.046;7.804;2023-03-04T16:12:52;43.37;;;19.27;;
19653;SDS011;9975;48.046;7.804;2023-03-04T16:15:23;35.53;;;17.67;;
19653;SDS011;9975;48.046;7.804;2023-03-04T16:17:50;43.50;;;19.83;;
19653;SDS011;9975;48.046;7.804;2023-03-04T16:20:21;40.07;;;18.40;;
19653;SDS011;9975;48.046;7.804;2023-03-04T16:22:57;43.03;;;20.13;;
19653;SDS011;9975;48.046;7.804;2023-03-04T16:25:29;39.67;;;19.57;;
19653;SDS011;9975;48.046;7.804;2023-03-04T16:27:55;36.07;;;18.80;;
19653;SDS011;9975;48.046;7.804;2023-03-04T16:30:23;40.80;;;17.30;;
19653;SDS011;9975;48.046;7.804;2023-03-04T16:32:50;44.47;;;18.97;;
19653;SDS011;9975;48.046;7.804;2023-03-04T16:35:19;43.50;;;19.40;;
19653;SDS011;9975;48.046;7.804;2023-03-04T16:41:26;44.57;;;19.93;;
19653;SDS011;9975;48.046;7.804;2023-03-04T16:43:54;42.20;;;21.10;;
19653;SDS011;9975;48.046;7.804;2023-03-04T16:46:25;39.03;;;18.67;;
19653;SDS011;9975;48.046;7.804;2023-03-04T16:48:51;46.90;;;22.80;;
19653;SDS011;9975;48.046;7.804;2023-03-04T16:51:19;51.57;;;23.30;;
19653;SDS011;9975;48.046;7.804;2023-03-04T16:53:47;64.77;;;27.43;;
19653;SDS011;9975;48.046;7.804;2023-03-04T16:56:21;79.83;;;30.90;;
19653;SDS011;9975;48.046;7.804;2023-03-04T16:58:48;88.23;;;36.70;;
19653;SDS011;9975;48.046;7.804;2023-03-04T17:03:44;78.30;;;31.67;;
19653;SDS011;9975;48.046;7.804;2023-03-04T17:06:10;116.20;;;42.00;;
19653;SDS011;9975;48.046;7.804;2023-03-04T17:08:36;108.83;;;41.97;;
19653;SDS011;9975;48.046;7.804;2023-03-04T17:11:02;93.37;;;36.97;;
19653;SDS011;9975;48.046;7.804;2023-03-04T17:13:28;83.03;;;34.00;;
19653;SDS011;9975;48.046;7.804;2023-03-04T17:15:54;82.97;;;31.43;;
19653;SDS011;9975;48.046;7.804;2023-03-04T17:18:23;77.90;;;31.23;;
19653;SDS011;9975;48.046;7.804;2023-03-04T17:20:48;67.50;;;29.43;;
19653;SDS011;9975;48.046;7.804;2023-03-04T17:23:14;58.73;;;25.87;;
19653;SDS011;9975;48.046;7.804;2023-03-04T17:25:40;54.30;;;23.50;;
19653;SDS011;9975;48.046;7.804;2023-03-04T17:28:05;54.63;;;22.57;;
19653;SDS011;9975;48.046;7.804;2023-03-04T17:30:31;57.20;;;21.50;;
19653;SDS011;9975;48.046;7.804;2023-03-04T17:32:57;55.77;;;20.70;;
19653;SDS011;9975;48.046;7.804;2023-03-04T17:35:23;49.57;;;19.80;;
19653;SDS011;9975;48.046;7.804;2023-03-04T17:37:49;44.03;;;19.43;;
19653;SDS011;9975;48.046;7.804;2023-03-04T17:40:15;51.37;;;21.70;;
19653;SDS011;9975;48.046;7.804;2023-03-04T17:42:42;48.15;;;21.50;;
19653;SDS011;9975;48.046;7.804;2023-03-04T17:45:08;53.08;;;19.48;;
19653;SDS011;9975;48.046;7.804;2023-03-04T17:47:34;41.25;;;17.95;;
19653;SDS011;9975;48.046;7.804;2023-03-04T17:50:01;43.63;;;19.17;;
19653;SDS011;9975;48.046;7.804;2023-03-04T17:52:27;47.08;;;21.92;;
19653;SDS011;9975;48.046;7.804;2023-03-04T17:54:53;40.47;;;18.83;;
19653;SDS011;9975;48.046;7.804;2023-03-04T17:57:18;39.50;;;17.63;;
19653;SDS011;9975;48.046;7.804;2023-03-04T17:59:44;50.13;;;19.40;;
19653;SDS011;9975;48.046;7.804;2023-03-04T18:02:12;44.47;;;19.60;;
19653;SDS011;9975;48.046;7.804;2023-03-04T18:04:39;43.17;;;18.10;;
19653;SDS011;9975;48.046;7.804;2023-03-04T18:07:05;39.83;;;17.52;;
19653;SDS011;9975;48.046;7.804;2023-03-04T18:09:31;39.00;;;16.47;;
19653;SDS011;9975;48.046;7.804;2023-03-04T18:11:57;54.30;;;20.83;;
19653;SDS011;9975;48.046;7.804;2023-03-04T18:14:22;46.77;;;16.47;;
19653;SDS011;9975;48.046;7.804;2023-03-04T18:16:48;45.00;;;18.47;;
19653;SDS011;9975;48.046;7.804;2023-03-04T18:19:14;40.27;;;18.57;;
19653;SDS011;9975;48.046;7.804;2023-03-04T18:21:39;50.10;;;20.00;;
19653;SDS011;9975;48.046;7.804;2023-03-04T18:24:05;40.03;;;18.20;;
19653;SDS011;9975;48.046;7.804;2023-03-04T18:26:31;43.47;;;16.73;;
19653;SDS011;9975;48.046;7.804;2023-03-04T18:28:57;41.60;;;16.70;;
19653;SDS011;9975;48.046;7.804;2023-03-04T18:31:23;43.80;;;18.23;;
19653;SDS011;9975;48.046;7.804;2023-03-04T18:33:51;47.67;;;19.42;;
19653;SDS011;9975;48.046;7.804;2023-03-04T18:36:18;47.10;;;18.27;;
19653;SDS011;9975;48.046;7.804;2023-03-04T18:38:44;51.95;;;21.50;;
19653;SDS011;9975;48.046;7.804;2023-03-04T18:41:11;44.73;;;18.40;;
19653;SDS011;9975;48.046;7.804;2023-03-04T18:43:38;48.40;;;20.02;;
19653;SDS011;9975;48.046;7.804;2023-03-04T18:46:48;62.53;;;23.63;;
19653;SDS011;9975;48.046;7.804;2023-03-04T18:49:05;84.57;;;25.40;;
19653;SDS011;9975;48.046;7.804;2023-03-04T18:51:33;55.88;;;21.05;;
19653;SDS011;9975;48.046;7.804;2023-03-04T18:53:58;46.17;;;19.73;;
19653;SDS011;9975;48.046;7.804;2023-03-04T18:56:27;47.72;;;19.50;;
19653;SDS011;9975;48.046;7.804;2023-03-04T18:59:01;48.42;;;18.95;;
19653;SDS011;9975;48.046;7.804;2023-03-04T19:01:37;39.88;;;19.23;;
19653;SDS011;9975;48.046;7.804;2023-03-04T19:04:04;39.03;;;17.88;;